sensor_id;sensor_type;location;lat;lon;timestamp;P1;durP1;ratioP1;P2;durP2;ratioP2
21181;SDS011;10749;46.296;7.524;2023-04-03T00:00:21;2.80;;;1.00;;
21181;SDS011;10749;46.296;7.524;2023-04-03T00:02:47;1.07;;;0.93;;
21181;SDS011;10749;46.296;7.524;2023-04-03T00:05:12;1.20;;;0.80;;
21181;SDS011;10749;46.296;7.524;2023-04-03T00:07:37;1.30;;;1.00;;
21181;SDS011;10749;46.296;7.524;2023-04-03T00:10:03;1.03;;;0.83;;
21181;SDS011;10749;46.296;7.524;2023-04-03T00:12:29;1.40;;;0.87;;
21181;SDS011;10749;46.296;7.524;2023-04-03T00:14:54;1.63;;;0.77;;
21181;SDS011;10749;46.296;7.524;2023-04-03T00:17:19;1.77;;;1.20;;
21181;SDS011;10749;46.296;7.524;2023-04-03T00:19:44;2.93;;;1.10;;
21181;SDS011;10749;46.296;7.524;2023-04-03T00:22:10;2.73;;;0.97;;
21181;SDS011;10749;46.296;7.524;2023-04-03T00:24:35;2.00;;;1.20;;
21181;SDS011;10749;46.296;7.524;2023-04-03T00:27:00;2.77;;;1.17;;
21181;SDS011;10749;46.296;7.524;2023-04-03T00:29:26;2.17;;;1.23;;
21181;SDS011;10749;46.296;7.524;2023-04-03T00:31:51;1.97;;;1.10;;
21181;SDS011;10749;46.296;7.524;2023-04-03T00:34:16;3.83;;;1.10;;
21181;SDS011;10749;46.296;7.524;2023-04-03T00:36:41;1.60;;;1.03;;
21181;SDS011;10749;46.296;7.524;2023-04-03T00:39:07;2.37;;;1.20;;
21181;SDS011;10749;46.296;7.524;2023-04-03T00:41:32;1.40;;;1.00;;
21181;SDS011;10749;46.296;7.524;2023-04-03T00:43:57;1.80;;;0.90;;
21181;SDS011;10749;46.296;7.524;2023-04-03T00:46:23;1.80;;;1.03;;
21181;SDS011;10749;46.296;7.524;2023-04-03T00:48:48;1.93;;;1.00;;
21181;SDS011;10749;46.296;7.524;2023-04-03T00:51:18;2.00;;;1.07;;
21181;SDS011;10749;46.296;7.524;2023-04-03T00:53:48;2.23;;;1.40;;
21181;SDS011;10749;46.296;7.524;2023-04-03T00:56:18;1.90;;;1.13;;
21181;SDS011;10749;46.296;7.524;2023-04-03T00:58:48;1.80;;;1.10;;
21181;SDS011;10749;46.296;7.524;2023-04-03T01:01:18;3.47;;;1.23;;
21181;SDS011;10749;46.296;7.524;2023-04-03T01:03:48;1.40;;;1.00;;
21181;SDS011;10749;46.296;7.524;2023-04-03T01:06:14;1.97;;;1.07;;
21181;SDS011;10749;46.296;7.524;2023-04-03T01:08:41;2.80;;;1.23;;
21181;SDS011;10749;46.296;7.524;2023-04-03T01:11:07;2.20;;;1.20;;
21181;SDS011;10749;46.296;7.524;2023-04-03T01:13:33;2.50;;;1.00;;
21181;SDS011;10749;46.296;7.524;2023-04-03T01:16:03;2.93;;;1.10;;
21181;SDS011;10749;46.296;7.524;2023-04-03T01:18:30;2.07;;;1.10;;
21181;SDS011;10749;46.296;7.524;2023-04-03T01:23:43;1.23;;;0.80;;
21181;SDS011;10749;46.296;7.524;2023-04-03T01:26:21;1.30;;;0.87;;
21181;SDS011;10749;46.296;7.524;2023-04-03T01:28:46;1.57;;;0.90;;
21181;SDS011;10749;46.296;7.524;2023-04-03T01:31:25;1.70;;;0.90;;
21181;SDS011;10749;46.296;7.524;2023-04-03T01:33:56;0.90;;;0.77;;
21181;SDS011;10749;46.296;7.524;2023-04-03T01:36:22;2.37;;;0.97;;
21181;SDS011;10749;46.296;7.524;2023-04-03T01:38:50;1.10;;;0.80;;
21181;SDS011;10749;46.296;7.524;2023-04-03T01:41:17;1.20;;;0.80;;
21181;SDS011;10749;46.296;7.524;2023-04-03T01:43:43;0.93;;;0.70;;
21181;SDS011;10749;46.296;7.524;2023-04-03T01:46:08;2.47;;;0.90;;
21181;SDS011;10749;46.296;7.524;2023-04-03T01:48:34;1.60;;;0.83;;
21181;SDS011;10749;46.296;7.524;2023-04-03T01:50:59;1.20;;;0.87;;
21181;SDS011;10749;46.296;7.524;2023-04-03T01:53:25;1.97;;;0.80;;
21181;SDS011;10749;46.296;7.524;2023-04-03T01:55:50;1.67;;;0.90;;
21181;SDS011;10749;46.296;7.524;2023-04-03T01:58:15;1.30;;;1.00;;
21181;SDS011;10749;46.296;7.524;2023-04-03T02:00:41;1.50;;;0.93;;
21181;SDS011;10749;46.296;7.524;2023-04-03T02:03:06;2.10;;;1.00;;
21181;SDS011;10749;46.296;7.524;2023-04-03T02:05:31;1.93;;;0.93;;
21181;SDS011;10749;46.296;7.524;2023-04-03T02:07:57;3.03;;;0.80;;
21181;SDS011;10749;46.296;7.524;2023-04-03T02:10:22;1.30;;;0.80;;
21181;SDS011;10749;46.296;7.524;2023-04-03T02:12:48;1.83;;;1.17;;
21181;SDS011;10749;46.296;7.524;2023-04-03T02:15:13;2.53;;;0.93;;
21181;SDS011;10749;46.296;7.524;2023-04-03T02:17:38;3.33;;;1.10;;
21181;SDS011;10749;46.296;7.524;2023-04-03T02:20:04;1.57;;;0.70;;
21181;SDS011;10749;46.296;7.524;2023-04-03T02:22:30;3.27;;;1.10;;
21181;SDS011;10749;46.296;7.524;2023-04-03T02:24:55;1.90;;;0.77;;
21181;SDS011;10749;46.296;7.524;2023-04-03T02:27:21;2.97;;;1.20;;
21181;SDS011;10749;46.296;7.524;2023-04-03T02:29:46;1.67;;;0.73;;
21181;SDS011;10749;46.296;7.524;2023-04-03T02:32:11;1.30;;;0.70;;
21181;SDS011;10749;46.296;7.524;2023-04-03T02:34:36;1.17;;;1.03;;
21181;SDS011;10749;46.296;7.524;2023-04-03T02:37:02;2.63;;;1.00;;
21181;SDS011;10749;46.296;7.524;2023-04-03T02:39:27;1.20;;;1.00;;
21181;SDS011;10749;46.296;7.524;2023-04-03T02:41:52;1.43;;;0.90;;
21181;SDS011;10749;46.296;7.524;2023-04-03T02:44:18;3.63;;;1.00;;
21181;SDS011;10749;46.296;7.524;2023-04-03T02:46:43;1.53;;;0.93;;
21181;SDS011;10749;46.296;7.524;2023-04-03T02:49:09;1.40;;;0.90;;
21181;SDS011;10749;46.296;7.524;2023-04-03T02:51:34;1.53;;;0.90;;
21181;SDS011;10749;46.296;7.524;2023-04-03T02:54:00;1.67;;;0.80;;
21181;SDS011;10749;46.296;7.524;2023-04-03T02:56:25;0.97;;;0.70;;
21181;SDS011;10749;46.296;7.524;2023-04-03T02:58:51;1.40;;;0.70;;
21181;SDS011;10749;46.296;7.524;2023-04-03T03:01:17;1.73;;;0.90;;
21181;SDS011;10749;46.296;7.524;2023-04-03T03:03:42;1.27;;;0.80;;
21181;SDS011;10749;46.296;7.524;2023-04-03T03:06:09;1.43;;;0.80;;
21181;SDS011;10749;46.296;7.524;2023-04-03T03:08:36;1.03;;;0.80;;
21181;SDS011;10749;46.296;7.524;2023-04-03T03:11:02;1.20;;;0.77;;
21181;SDS011;10749;46.296;7.524;2023-04-03T03:13:28;2.63;;;0.80;;
21181;SDS011;10749;46.296;7.524;2023-04-03T03:15:54;1.60;;;0.70;;
21181;SDS011;10749;46.296;7.524;2023-04-03T03:18:20;1.53;;;0.90;;
21181;SDS011;10749;46.296;7.524;2023-04-03T03:20:46;0.93;;;0.77;;
21181;SDS011;10749;46.296;7.524;2023-04-03T03:23:11;1.47;;;0.80;;
21181;SDS011;10749;46.296;7.524;2023-04-03T03:25:40;2.00;;;0.70;;
21181;SDS011;10749;46.296;7.524;2023-04-03T03:28:05;2.33;;;0.80;;
21181;SDS011;10749;46.296;7.524;2023-04-03T03:30:31;2.43;;;0.80;;
21181;SDS011;10749;46.296;7.524;2023-04-03T03:32:57;2.10;;;0.90;;
21181;SDS011;10749;46.296;7.524;2023-04-03T03:35:22;0.93;;;0.73;;
21181;SDS011;10749;46.296;7.524;2023-04-03T03:37:47;2.40;;;0.73;;
21181;SDS011;10749;46.296;7.524;2023-04-03T03:40:13;1.20;;;0.90;;
21181;SDS011;10749;46.296;7.524;2023-04-03T03:42:38;3.43;;;1.00;;
21181;SDS011;10749;46.296;7.524;2023-04-03T03:45:04;1.73;;;0.83;;
21181;SDS011;10749;46.296;7.524;2023-04-03T03:47:30;1.77;;;0.90;;
21181;SDS011;10749;46.296;7.524;2023-04-03T03:49:56;0.93;;;0.70;;
21181;SDS011;10749;46.296;7.524;2023-04-03T03:52:21;3.20;;;0.80;;
21181;SDS011;10749;46.296;7.524;2023-04-03T03:54:46;1.07;;;0.80;;
21181;SDS011;10749;46.296;7.524;2023-04-03T03:57:11;4.97;;;1.10;;
21181;SDS011;10749;46.296;7.524;2023-04-03T03:59:37;2.20;;;0.90;;
21181;SDS011;10749;46.296;7.524;2023-04-03T04:02:02;4.40;;;1.00;;
21181;SDS011;10749;46.296;7.524;2023-04-03T04:04:28;1.33;;;1.00;;
21181;SDS011;10749;46.296;7.524;2023-04-03T04:06:53;1.70;;;0.93;;
21181;SDS011;10749;46.296;7.524;2023-04-03T04:09:18;2.40;;;1.03;;
21181;SDS011;10749;46.296;7.524;2023-04-03T04:11:44;2.50;;;1.10;;
21181;SDS011;10749;46.296;7.524;2023-04-03T04:14:10;2.53;;;1.00;;
21181;SDS011;10749;46.296;7.524;2023-04-03T04:16:37;2.07;;;0.90;;
21181;SDS011;10749;46.296;7.524;2023-04-03T04:19:02;3.30;;;0.73;;
21181;SDS011;10749;46.296;7.524;2023-04-03T04:21:27;2.43;;;1.20;;
21181;SDS011;10749;46.296;7.524;2023-04-03T04:23:53;0.87;;;0.80;;
21181;SDS011;10749;46.296;7.524;2023-04-03T04:26:18;4.67;;;2.37;;
21181;SDS011;10749;46.296;7.524;2023-04-03T04:28:43;2.67;;;1.33;;
21181;SDS011;10749;46.296;7.524;2023-04-03T04:31:08;2.53;;;1.00;;
21181;SDS011;10749;46.296;7.524;2023-04-03T04:33:34;3.03;;;0.87;;
21181;SDS011;10749;46.296;7.524;2023-04-03T04:35:59;1.37;;;1.00;;
21181;SDS011;10749;46.296;7.524;2023-04-03T04:38:24;1.33;;;0.90;;
21181;SDS011;10749;46.296;7.524;2023-04-03T04:40:50;2.17;;;1.20;;
21181;SDS011;10749;46.296;7.524;2023-04-03T04:43:16;2.73;;;1.10;;
21181;SDS011;10749;46.296;7.524;2023-04-03T04:45:41;2.77;;;1.00;;
21181;SDS011;10749;46.296;7.524;2023-04-03T04:48:06;1.97;;;0.70;;
21181;SDS011;10749;46.296;7.524;2023-04-03T04:50:32;2.23;;;1.17;;
21181;SDS011;10749;46.296;7.524;2023-04-03T04:52:57;4.57;;;1.30;;
21181;SDS011;10749;46.296;7.524;2023-04-03T04:55:23;2.07;;;0.90;;
21181;SDS011;10749;46.296;7.524;2023-04-03T04:57:48;1.27;;;0.93;;
21181;SDS011;10749;46.296;7.524;2023-04-03T05:00:14;2.40;;;1.10;;
21181;SDS011;10749;46.296;7.524;2023-04-03T05:02:40;1.00;;;0.70;;
21181;SDS011;10749;46.296;7.524;2023-04-03T05:05:05;2.13;;;1.20;;
21181;SDS011;10749;46.296;7.524;2023-04-03T05:07:31;1.37;;;1.00;;
21181;SDS011;10749;46.296;7.524;2023-04-03T05:09:56;1.83;;;1.07;;
21181;SDS011;10749;46.296;7.524;2023-04-03T05:12:21;1.57;;;1.00;;
21181;SDS011;10749;46.296;7.524;2023-04-03T05:14:47;2.20;;;1.00;;
21181;SDS011;10749;46.296;7.524;2023-04-03T05:17:12;2.03;;;1.13;;
21181;SDS011;10749;46.296;7.524;2023-04-03T05:19:37;3.13;;;1.00;;
21181;SDS011;10749;46.296;7.524;2023-04-03T05:22:03;2.10;;;1.13;;
21181;SDS011;10749;46.296;7.524;2023-04-03T05:24:28;1.70;;;1.23;;
21181;SDS011;10749;46.296;7.524;2023-04-03T05:26:53;2.07;;;1.30;;
21181;SDS011;10749;46.296;7.524;2023-04-03T05:29:20;3.93;;;1.67;;
21181;SDS011;10749;46.296;7.524;2023-04-03T05:31:47;3.30;;;2.00;;
21181;SDS011;10749;46.296;7.524;2023-04-03T05:34:14;5.70;;;2.30;;
21181;SDS011;10749;46.296;7.524;2023-04-03T05:36:39;6.90;;;3.10;;
21181;SDS011;10749;46.296;7.524;2023-04-03T05:39:04;6.87;;;1.93;;
21181;SDS011;10749;46.296;7.524;2023-04-03T05:41:30;6.33;;;2.47;;
21181;SDS011;10749;46.296;7.524;2023-04-03T05:43:56;5.47;;;2.30;;
21181;SDS011;10749;46.296;7.524;2023-04-03T05:46:21;5.17;;;1.97;;
21181;SDS011;10749;46.296;7.524;2023-04-03T05:48:47;5.30;;;2.10;;
21181;SDS011;10749;46.296;7.524;2023-04-03T05:51:14;3.37;;;2.13;;
21181;SDS011;10749;46.296;7.524;2023-04-03T05:53:41;3.67;;;2.00;;
21181;SDS011;10749;46.296;7.524;2023-04-03T05:56:08;3.87;;;1.97;;
21181;SDS011;10749;46.296;7.524;2023-04-03T05:58:34;5.40;;;2.07;;
21181;SDS011;10749;46.296;7.524;2023-04-03T06:00:59;4.10;;;2.03;;
21181;SDS011;10749;46.296;7.524;2023-04-03T06:03:25;4.20;;;2.20;;
21181;SDS011;10749;46.296;7.524;2023-04-03T06:05:51;5.80;;;2.53;;
21181;SDS011;10749;46.296;7.524;2023-04-03T06:08:16;4.60;;;2.07;;
21181;SDS011;10749;46.296;7.524;2023-04-03T06:10:41;2.50;;;1.70;;
21181;SDS011;10749;46.296;7.524;2023-04-03T06:13:07;4.63;;;1.77;;
21181;SDS011;10749;46.296;7.524;2023-04-03T06:15:32;5.00;;;1.23;;
21181;SDS011;10749;46.296;7.524;2023-04-03T06:17:58;2.80;;;1.60;;
21181;SDS011;10749;46.296;7.524;2023-04-03T06:20:24;3.43;;;1.37;;
21181;SDS011;10749;46.296;7.524;2023-04-03T06:22:49;3.30;;;1.50;;
21181;SDS011;10749;46.296;7.524;2023-04-03T06:25:16;4.70;;;1.30;;
21181;SDS011;10749;46.296;7.524;2023-04-03T06:27:43;2.57;;;1.30;;
21181;SDS011;10749;46.296;7.524;2023-04-03T06:30:09;3.10;;;1.63;;
21181;SDS011;10749;46.296;7.524;2023-04-03T06:32:35;3.10;;;1.10;;
21181;SDS011;10749;46.296;7.524;2023-04-03T06:35:01;3.60;;;1.30;;
21181;SDS011;10749;46.296;7.524;2023-04-03T06:37:26;1.37;;;1.00;;
21181;SDS011;10749;46.296;7.524;2023-04-03T06:39:53;3.07;;;1.30;;
21181;SDS011;10749;46.296;7.524;2023-04-03T06:42:19;2.90;;;1.40;;
21181;SDS011;10749;46.296;7.524;2023-04-03T06:44:45;3.53;;;1.40;;
21181;SDS011;10749;46.296;7.524;2023-04-03T06:47:14;1.40;;;0.80;;
21181;SDS011;10749;46.296;7.524;2023-04-03T06:49:40;1.70;;;1.00;;
21181;SDS011;10749;46.296;7.524;2023-04-03T06:52:06;3.50;;;1.40;;
21181;SDS011;10749;46.296;7.524;2023-04-03T06:54:31;2.00;;;1.23;;
21181;SDS011;10749;46.296;7.524;2023-04-03T06:56:57;2.40;;;1.37;;
21181;SDS011;10749;46.296;7.524;2023-04-03T06:59:23;2.93;;;1.10;;
21181;SDS011;10749;46.296;7.524;2023-04-03T07:01:48;1.80;;;1.20;;
21181;SDS011;10749;46.296;7.524;2023-04-03T07:04:14;2.83;;;1.10;;
21181;SDS011;10749;46.296;7.524;2023-04-03T07:06:40;3.93;;;1.20;;
21181;SDS011;10749;46.296;7.524;2023-04-03T07:09:06;4.43;;;1.00;;
21181;SDS011;10749;46.296;7.524;2023-04-03T07:11:32;3.20;;;1.10;;
21181;SDS011;10749;46.296;7.524;2023-04-03T07:13:58;2.57;;;0.90;;
21181;SDS011;10749;46.296;7.524;2023-04-03T07:16:23;2.87;;;1.07;;
21181;SDS011;10749;46.296;7.524;2023-04-03T07:18:48;2.30;;;0.80;;
21181;SDS011;10749;46.296;7.524;2023-04-03T07:21:14;2.77;;;0.90;;
21181;SDS011;10749;46.296;7.524;2023-04-03T07:23:39;1.77;;;0.80;;
21181;SDS011;10749;46.296;7.524;2023-04-03T07:26:05;1.50;;;0.93;;
21181;SDS011;10749;46.296;7.524;2023-04-03T07:28:31;1.13;;;0.80;;
21181;SDS011;10749;46.296;7.524;2023-04-03T07:31:01;3.03;;;0.87;;
21181;SDS011;10749;46.296;7.524;2023-04-03T07:33:38;3.60;;;0.90;;
21181;SDS011;10749;46.296;7.524;2023-04-03T07:36:04;2.70;;;0.70;;
21181;SDS011;10749;46.296;7.524;2023-04-03T07:38:31;1.30;;;0.70;;
21181;SDS011;10749;46.296;7.524;2023-04-03T07:40:57;1.87;;;0.90;;
21181;SDS011;10749;46.296;7.524;2023-04-03T07:43:23;1.37;;;0.80;;
21181;SDS011;10749;46.296;7.524;2023-04-03T07:45:50;1.27;;;0.70;;
21181;SDS011;10749;46.296;7.524;2023-04-03T07:48:17;1.47;;;0.60;;
21181;SDS011;10749;46.296;7.524;2023-04-03T07:50:45;1.83;;;0.90;;
21181;SDS011;10749;46.296;7.524;2023-04-03T07:53:11;2.77;;;0.90;;
21181;SDS011;10749;46.296;7.524;2023-04-03T07:55:36;2.13;;;0.80;;
21181;SDS011;10749;46.296;7.524;2023-04-03T07:58:08;1.03;;;0.83;;
21181;SDS011;10749;46.296;7.524;2023-04-03T08:00:37;1.20;;;0.70;;
21181;SDS011;10749;46.296;7.524;2023-04-03T08:03:03;3.87;;;0.93;;
21181;SDS011;10749;46.296;7.524;2023-04-03T08:05:28;1.70;;;0.70;;
21181;SDS011;10749;46.296;7.524;2023-04-03T08:07:53;0.67;;;0.50;;
21181;SDS011;10749;46.296;7.524;2023-04-03T08:10:19;0.73;;;0.50;;
21181;SDS011;10749;46.296;7.524;2023-04-03T08:12:45;1.13;;;0.60;;
21181;SDS011;10749;46.296;7.524;2023-04-03T08:15:12;0.83;;;0.40;;
21181;SDS011;10749;46.296;7.524;2023-04-03T08:17:37;2.13;;;0.50;;
21181;SDS011;10749;46.296;7.524;2023-04-03T08:20:03;0.80;;;0.70;;
21181;SDS011;10749;46.296;7.524;2023-04-03T08:22:31;3.80;;;0.50;;
21181;SDS011;10749;46.296;7.524;2023-04-03T08:24:57;1.20;;;0.70;;
21181;SDS011;10749;46.296;7.524;2023-04-03T08:27:22;1.03;;;0.50;;
21181;SDS011;10749;46.296;7.524;2023-04-03T08:29:47;0.73;;;0.60;;
21181;SDS011;10749;46.296;7.524;2023-04-03T08:32:13;0.70;;;0.40;;
21181;SDS011;10749;46.296;7.524;2023-04-03T08:34:38;1.37;;;0.60;;
21181;SDS011;10749;46.296;7.524;2023-04-03T08:37:04;0.70;;;0.50;;
21181;SDS011;10749;46.296;7.524;2023-04-03T08:39:30;0.93;;;0.47;;
21181;SDS011;10749;46.296;7.524;2023-04-03T08:41:57;3.53;;;0.60;;
21181;SDS011;10749;46.296;7.524;2023-04-03T08:44:47;1.40;;;0.50;;
21181;SDS011;10749;46.296;7.524;2023-04-03T08:47:25;1.10;;;0.60;;
21181;SDS011;10749;46.296;7.524;2023-04-03T08:50:02;1.20;;;0.67;;
21181;SDS011;10749;46.296;7.524;2023-04-03T08:52:47;0.93;;;0.40;;
21181;SDS011;10749;46.296;7.524;2023-04-03T08:57:47;2.17;;;0.90;;
21181;SDS011;10749;46.296;7.524;2023-04-03T09:00:17;1.50;;;0.40;;
21181;SDS011;10749;46.296;7.524;2023-04-03T09:02:45;0.80;;;0.37;;
21181;SDS011;10749;46.296;7.524;2023-04-03T09:05:17;0.90;;;0.50;;
21181;SDS011;10749;46.296;7.524;2023-04-03T09:07:46;1.23;;;0.70;;
21181;SDS011;10749;46.296;7.524;2023-04-03T09:10:15;0.60;;;0.33;;
21181;SDS011;10749;46.296;7.524;2023-04-03T09:12:45;2.10;;;0.37;;
21181;SDS011;10749;46.296;7.524;2023-04-03T09:15:18;0.60;;;0.30;;
21181;SDS011;10749;46.296;7.524;2023-04-03T09:25:49;0.43;;;0.30;;
21181;SDS011;10749;46.296;7.524;2023-04-03T09:28:19;2.03;;;0.40;;
21181;SDS011;10749;46.296;7.524;2023-04-03T09:30:44;2.20;;;0.53;;
21181;SDS011;10749;46.296;7.524;2023-04-03T09:33:10;2.37;;;0.50;;
21181;SDS011;10749;46.296;7.524;2023-04-03T09:35:37;0.60;;;0.30;;
21181;SDS011;10749;46.296;7.524;2023-04-03T09:40:36;0.60;;;0.40;;
21181;SDS011;10749;46.296;7.524;2023-04-03T09:43:24;0.50;;;0.30;;
21181;SDS011;10749;46.296;7.524;2023-04-03T09:45:53;0.30;;;0.20;;
21181;SDS011;10749;46.296;7.524;2023-04-03T09:48:20;0.20;;;0.20;;
21181;SDS011;10749;46.296;7.524;2023-04-03T09:53:26;4.20;;;1.70;;
21181;SDS011;10749;46.296;7.524;2023-04-03T09:58:43;20.40;;;8.00;;
21181;SDS011;10749;46.296;7.524;2023-04-03T10:01:27;20.33;;;6.37;;
21181;SDS011;10749;46.296;7.524;2023-04-03T10:14:35;22.10;;;7.40;;
21181;SDS011;10749;46.296;7.524;2023-04-03T10:20:06;5.97;;;2.30;;
21181;SDS011;10749;46.296;7.524;2023-04-03T10:25:24;6.63;;;1.80;;
21181;SDS011;10749;46.296;7.524;2023-04-03T10:28:00;7.50;;;3.23;;
21181;SDS011;10749;46.296;7.524;2023-04-03T10:30:50;16.10;;;6.20;;
21181;SDS011;10749;46.296;7.524;2023-04-03T10:47:21;1.10;;;0.60;;
21181;SDS011;10749;46.296;7.524;2023-04-03T10:52:48;13.37;;;6.03;;
21181;SDS011;10749;46.296;7.524;2023-04-03T10:57:51;10.37;;;4.87;;
21181;SDS011;10749;46.296;7.524;2023-04-03T11:00:22;8.60;;;3.53;;
21181;SDS011;10749;46.296;7.524;2023-04-03T11:02:57;0.87;;;0.40;;
21181;SDS011;10749;46.296;7.524;2023-04-03T11:05:35;0.50;;;0.30;;
21181;SDS011;10749;46.296;7.524;2023-04-03T11:08:09;0.40;;;0.30;;
21181;SDS011;10749;46.296;7.524;2023-04-03T11:10:41;0.43;;;0.37;;
21181;SDS011;10749;46.296;7.524;2023-04-03T11:13:17;0.70;;;0.30;;
21181;SDS011;10749;46.296;7.524;2023-04-03T11:15:48;0.57;;;0.43;;
21181;SDS011;10749;46.296;7.524;2023-04-03T11:18:21;0.27;;;0.20;;
21181;SDS011;10749;46.296;7.524;2023-04-03T11:21:02;0.60;;;0.30;;
21181;SDS011;10749;46.296;7.524;2023-04-03T11:23:34;0.53;;;0.50;;
21181;SDS011;10749;46.296;7.524;2023-04-03T11:26:14;0.80;;;0.40;;
21181;SDS011;10749;46.296;7.524;2023-04-03T11:28:42;0.60;;;0.30;;
21181;SDS011;10749;46.296;7.524;2023-04-03T11:34:15;0.82;;;0.30;;
21181;SDS011;10749;46.296;7.524;2023-04-03T11:36:55;0.77;;;0.47;;
21181;SDS011;10749;46.296;7.524;2023-04-03T11:39:34;0.60;;;0.20;;
21181;SDS011;10749;46.296;7.524;2023-04-03T11:47:47;0.38;;;0.30;;
21181;SDS011;10749;46.296;7.524;2023-04-03T11:55:42;0.60;;;0.30;;
21181;SDS011;10749;46.296;7.524;2023-04-03T11:58:14;1.73;;;0.32;;
21181;SDS011;10749;46.296;7.524;2023-04-03T12:16:24;0.73;;;0.40;;
21181;SDS011;10749;46.296;7.524;2023-04-03T12:40:06;1.38;;;0.40;;
21181;SDS011;10749;46.296;7.524;2023-04-03T12:45:49;0.38;;;0.38;;
21181;SDS011;10749;46.296;7.524;2023-04-03T12:48:22;0.45;;;0.28;;
21181;SDS011;10749;46.296;7.524;2023-04-03T12:50:51;0.40;;;0.30;;
21181;SDS011;10749;46.296;7.524;2023-04-03T12:53:18;0.50;;;0.30;;
21181;SDS011;10749;46.296;7.524;2023-04-03T12:55:46;0.73;;;0.40;;
21181;SDS011;10749;46.296;7.524;2023-04-03T12:58:16;0.60;;;0.30;;
21181;SDS011;10749;46.296;7.524;2023-04-03T13:00:45;1.35;;;0.35;;
21181;SDS011;10749;46.296;7.524;2023-04-03T13:03:24;0.40;;;0.20;;
21181;SDS011;10749;46.296;7.524;2023-04-03T13:05:52;1.05;;;0.30;;
21181;SDS011;10749;46.296;7.524;2023-04-03T13:08:19;1.48;;;0.30;;
21181;SDS011;10749;46.296;7.524;2023-04-03T13:10:55;0.30;;;0.20;;
21181;SDS011;10749;46.296;7.524;2023-04-03T13:13:24;0.63;;;0.50;;
21181;SDS011;10749;46.296;7.524;2023-04-03T13:15:51;0.47;;;0.40;;
21181;SDS011;10749;46.296;7.524;2023-04-03T13:18:25;3.70;;;0.40;;
21181;SDS011;10749;46.296;7.524;2023-04-03T13:21:02;0.30;;;0.30;;
21181;SDS011;10749;46.296;7.524;2023-04-03T13:23:29;0.60;;;0.40;;
21181;SDS011;10749;46.296;7.524;2023-04-03T13:25:56;0.70;;;0.40;;
21181;SDS011;10749;46.296;7.524;2023-04-03T13:28:25;1.75;;;0.45;;
21181;SDS011;10749;46.296;7.524;2023-04-03T13:30:56;2.10;;;0.40;;
21181;SDS011;10749;46.296;7.524;2023-04-03T13:33:29;1.17;;;0.40;;
21181;SDS011;10749;46.296;7.524;2023-04-03T13:36:06;0.57;;;0.50;;
21181;SDS011;10749;46.296;7.524;2023-04-03T13:38:40;0.75;;;0.35;;
21181;SDS011;10749;46.296;7.524;2023-04-03T13:41:21;0.35;;;0.32;;
21181;SDS011;10749;46.296;7.524;2023-04-03T13:43:49;1.48;;;0.40;;
21181;SDS011;10749;46.296;7.524;2023-04-03T13:53:44;3.25;;;0.57;;
21181;SDS011;10749;46.296;7.524;2023-04-03T13:56:19;0.50;;;0.50;;
21181;SDS011;10749;46.296;7.524;2023-04-03T14:01:45;0.90;;;0.77;;
21181;SDS011;10749;46.296;7.524;2023-04-03T14:04:23;0.60;;;0.60;;
21181;SDS011;10749;46.296;7.524;2023-04-03T14:06:52;0.65;;;0.50;;
21181;SDS011;10749;46.296;7.524;2023-04-03T14:09:18;0.80;;;0.50;;
21181;SDS011;10749;46.296;7.524;2023-04-03T14:11:45;1.48;;;0.50;;
21181;SDS011;10749;46.296;7.524;2023-04-03T14:14:16;1.95;;;0.60;;
21181;SDS011;10749;46.296;7.524;2023-04-03T14:16:50;1.25;;;0.50;;
21181;SDS011;10749;46.296;7.524;2023-04-03T14:19:28;0.75;;;0.55;;
21181;SDS011;10749;46.296;7.524;2023-04-03T14:21:57;0.80;;;0.50;;
21181;SDS011;10749;46.296;7.524;2023-04-03T14:24:23;1.35;;;0.40;;
21181;SDS011;10749;46.296;7.524;2023-04-03T14:26:49;0.38;;;0.35;;
21181;SDS011;10749;46.296;7.524;2023-04-03T14:29:16;0.52;;;0.40;;
21181;SDS011;10749;46.296;7.524;2023-04-03T14:31:43;2.45;;;0.47;;
21181;SDS011;10749;46.296;7.524;2023-04-03T14:34:11;0.70;;;0.50;;
21181;SDS011;10749;46.296;7.524;2023-04-03T14:36:37;1.40;;;0.60;;
21181;SDS011;10749;46.296;7.524;2023-04-03T14:39:03;2.28;;;0.50;;
21181;SDS011;10749;46.296;7.524;2023-04-03T14:41:31;1.05;;;0.40;;
21181;SDS011;10749;46.296;7.524;2023-04-03T14:43:56;3.35;;;0.70;;
21181;SDS011;10749;46.296;7.524;2023-04-03T14:46:26;1.85;;;0.68;;
21181;SDS011;10749;46.296;7.524;2023-04-03T14:48:55;2.22;;;0.68;;
21181;SDS011;10749;46.296;7.524;2023-04-03T14:51:20;2.40;;;0.50;;
21181;SDS011;10749;46.296;7.524;2023-04-03T14:53:46;1.15;;;0.70;;
21181;SDS011;10749;46.296;7.524;2023-04-03T14:56:18;1.75;;;0.65;;
21181;SDS011;10749;46.296;7.524;2023-04-03T14:58:48;0.55;;;0.50;;
21181;SDS011;10749;46.296;7.524;2023-04-03T15:01:15;1.27;;;0.50;;
21181;SDS011;10749;46.296;7.524;2023-04-03T15:03:42;1.52;;;0.60;;
21181;SDS011;10749;46.296;7.524;2023-04-03T15:06:09;1.33;;;0.80;;
21181;SDS011;10749;46.296;7.524;2023-04-03T15:08:36;1.05;;;0.68;;
21181;SDS011;10749;46.296;7.524;2023-04-03T15:11:02;2.50;;;0.68;;
21181;SDS011;10749;46.296;7.524;2023-04-03T15:13:27;1.17;;;0.80;;
21181;SDS011;10749;46.296;7.524;2023-04-03T15:15:52;1.05;;;0.80;;
21181;SDS011;10749;46.296;7.524;2023-04-03T15:18:25;1.27;;;0.80;;
21181;SDS011;10749;46.296;7.524;2023-04-03T15:20:52;0.70;;;0.60;;
21181;SDS011;10749;46.296;7.524;2023-04-03T15:23:19;1.75;;;0.98;;
21181;SDS011;10749;46.296;7.524;2023-04-03T15:25:45;3.30;;;0.77;;
21181;SDS011;10749;46.296;7.524;2023-04-03T15:28:22;2.90;;;1.00;;
21181;SDS011;10749;46.296;7.524;2023-04-03T15:30:53;1.98;;;1.20;;
21181;SDS011;10749;46.296;7.524;2023-04-03T15:33:19;1.35;;;0.90;;
21181;SDS011;10749;46.296;7.524;2023-04-03T15:35:45;2.58;;;1.08;;
21181;SDS011;10749;46.296;7.524;2023-04-03T15:38:10;1.95;;;1.30;;
21181;SDS011;10749;46.296;7.524;2023-04-03T15:40:36;1.20;;;0.98;;
21181;SDS011;10749;46.296;7.524;2023-04-03T15:43:01;1.60;;;1.15;;
21181;SDS011;10749;46.296;7.524;2023-04-03T15:45:30;1.40;;;0.95;;
21181;SDS011;10749;46.296;7.524;2023-04-03T15:47:56;1.77;;;1.10;;
21181;SDS011;10749;46.296;7.524;2023-04-03T15:50:22;2.33;;;1.10;;
21181;SDS011;10749;46.296;7.524;2023-04-03T15:52:49;2.20;;;1.20;;
21181;SDS011;10749;46.296;7.524;2023-04-03T15:55:19;1.60;;;1.25;;
21181;SDS011;10749;46.296;7.524;2023-04-03T15:57:46;4.10;;;1.25;;
21181;SDS011;10749;46.296;7.524;2023-04-03T16:00:11;1.58;;;1.30;;
21181;SDS011;10749;46.296;7.524;2023-04-03T16:02:37;1.48;;;1.30;;
21181;SDS011;10749;46.296;7.524;2023-04-03T16:05:02;4.15;;;1.77;;
21181;SDS011;10749;46.296;7.524;2023-04-03T16:07:28;2.10;;;1.27;;
21181;SDS011;10749;46.296;7.524;2023-04-03T16:09:53;1.42;;;0.90;;
21181;SDS011;10749;46.296;7.524;2023-04-03T16:12:19;2.65;;;1.13;;
21181;SDS011;10749;46.296;7.524;2023-04-03T16:14:44;2.08;;;1.23;;
21181;SDS011;10749;46.296;7.524;2023-04-03T16:17:09;2.25;;;1.27;;
21181;SDS011;10749;46.296;7.524;2023-04-03T16:19:35;1.60;;;1.50;;
21181;SDS011;10749;46.296;7.524;2023-04-03T16:22:00;1.77;;;1.58;;
21181;SDS011;10749;46.296;7.524;2023-04-03T16:24:26;4.40;;;1.50;;
21181;SDS011;10749;46.296;7.524;2023-04-03T16:26:51;3.00;;;1.70;;
21181;SDS011;10749;46.296;7.524;2023-04-03T16:29:18;1.77;;;1.40;;
21181;SDS011;10749;46.296;7.524;2023-04-03T16:31:43;1.60;;;1.33;;
21181;SDS011;10749;46.296;7.524;2023-04-03T16:34:09;1.52;;;1.42;;
21181;SDS011;10749;46.296;7.524;2023-04-03T16:36:34;2.40;;;1.90;;
21181;SDS011;10749;46.296;7.524;2023-04-03T16:39:00;1.70;;;1.50;;
21181;SDS011;10749;46.296;7.524;2023-04-03T16:41:25;1.65;;;1.48;;
21181;SDS011;10749;46.296;7.524;2023-04-03T16:43:50;2.95;;;1.40;;
21181;SDS011;10749;46.296;7.524;2023-04-03T16:46:16;3.13;;;1.48;;
21181;SDS011;10749;46.296;7.524;2023-04-03T16:48:41;2.73;;;1.60;;
21181;SDS011;10749;46.296;7.524;2023-04-03T16:51:06;2.33;;;1.70;;